sensor_id;sensor_type;location;lat;lon;timestamp;pressure;altitude;pressure_sealevel;temperature;humidity
50710;BME280;37033;49.994;21.992;2022-10-17T00:01:38;100403.20;;;10.51;70.42
50710;BME280;37033;49.994;21.992;2022-10-17T00:04:26;100406.39;;;10.46;70.56
50710;BME280;37033;49.994;21.992;2022-10-17T00:07:14;100403.20;;;10.40;70.57
50710;BME280;37033;49.994;21.992;2022-10-17T00:10:03;100392.77;;;10.37;70.68
50710;BME280;37033;49.994;21.992;2022-10-17T00:12:52;100398.39;;;10.34;70.89
50710;BME280;37033;49.994;21.992;2022-10-17T00:15:43;100400.57;;;10.31;71.11
50710;BME280;37033;49.994;21.992;2022-10-17T00:18:31;100405.77;;;10.28;71.23
50710;BME280;37033;49.994;21.992;2022-10-17T00:21:20;100408.12;;;10.26;71.42
50710;BME280;37033;49.994;21.992;2022-10-17T00:24:08;100411.19;;;10.23;71.30
50710;BME280;37033;49.994;21.992;2022-10-17T00:26:57;100416.95;;;10.21;71.43
50710;BME280;37033;49.994;21.992;2022-10-17T00:29:48;100422.19;;;10.19;71.46
50710;BME280;37033;49.994;21.992;2022-10-17T00:32:36;100423.81;;;10.17;71.63
50710;BME280;37033;49.994;21.992;2022-10-17T00:35:25;100425.37;;;10.15;71.58
50710;BME280;37033;49.994;21.992;2022-10-17T00:38:13;100418.44;;;10.12;71.41
50710;BME280;37033;49.994;21.992;2022-10-17T00:41:02;100419.96;;;10.07;71.55
50710;BME280;37033;49.994;21.992;2022-10-17T00:43:53;100419.01;;;10.03;71.65
50710;BME280;37033;49.994;21.992;2022-10-17T00:46:43;100420.48;;;9.98;71.73
50710;BME280;37033;49.994;21.992;2022-10-17T00:49:31;100421.78;;;9.95;71.81
50710;BME280;37033;49.994;21.992;2022-10-17T00:52:22;100419.80;;;9.92;71.78
50710;BME280;37033;49.994;21.992;2022-10-17T00:55:13;100419.72;;;9.85;71.77
50710;BME280;37033;49.994;21.992;2022-10-17T00:58:03;100421.80;;;9.81;71.97
50710;BME280;37033;49.994;21.992;2022-10-17T01:00:52;100421.06;;;9.76;71.96
50710;BME280;37033;49.994;21.992;2022-10-17T01:03:41;100420.77;;;9.71;71.95
50710;BME280;37033;49.994;21.992;2022-10-17T01:06:29;100415.11;;;9.65;72.10
50710;BME280;37033;49.994;21.992;2022-10-17T01:09:18;100412.77;;;9.61;72.20
50710;BME280;37033;49.994;21.992;2022-10-17T01:12:09;100412.98;;;9.58;72.33
50710;BME280;37033;49.994;21.992;2022-10-17T01:15:04;100418.91;;;9.54;72.54
50710;BME280;37033;49.994;21.992;2022-10-17T01:17:58;100423.39;;;9.52;72.63
50710;BME280;37033;49.994;21.992;2022-10-17T01:21:01;100423.41;;;9.50;72.75
50710;BME280;37033;49.994;21.992;2022-10-17T01:23:58;100424.13;;;9.46;72.70
50710;BME280;37033;49.994;21.992;2022-10-17T01:29:58;100422.74;;;9.39;72.87
50710;BME280;37033;49.994;21.992;2022-10-17T01:32:51;100424.05;;;9.36;72.98
50710;BME280;37033;49.994;21.992;2022-10-17T01:35:45;100424.96;;;9.34;73.08
50710;BME280;37033;49.994;21.992;2022-10-17T01:38:36;100427.63;;;9.30;73.08
50710;BME280;37033;49.994;21.992;2022-10-17T01:41:29;100432.55;;;9.27;73.15
50710;BME280;37033;49.994;21.992;2022-10-17T01:44:24;100434.14;;;9.23;73.09
50710;BME280;37033;49.994;21.992;2022-10-17T01:47:16;100436.23;;;9.20;73.08
50710;BME280;37033;49.994;21.992;2022-10-17T01:50:08;100433.04;;;9.16;73.39
50710;BME280;37033;49.994;21.992;2022-10-17T01:52:59;100433.54;;;9.13;73.42
50710;BME280;37033;49.994;21.992;2022-10-17T01:55:49;100431.58;;;9.10;73.34
50710;BME280;37033;49.994;21.992;2022-10-17T01:58:41;100431.18;;;9.07;73.44
50710;BME280;37033;49.994;21.992;2022-10-17T02:01:31;100425.34;;;9.04;73.55
50710;BME280;37033;49.994;21.992;2022-10-17T02:04:22;100425.42;;;9.00;73.58
50710;BME280;37033;49.994;21.992;2022-10-17T02:07:11;100427.33;;;8.97;73.55
50710;BME280;37033;49.994;21.992;2022-10-17T02:10:00;100431.67;;;8.93;73.61
50710;BME280;37033;49.994;21.992;2022-10-17T02:12:50;100436.36;;;8.89;73.53
50710;BME280;37033;49.994;21.992;2022-10-17T02:15:49;100439.23;;;8.85;73.57
50710;BME280;37033;49.994;21.992;2022-10-17T02:18:45;100440.77;;;8.80;73.86
50710;BME280;37033;49.994;21.992;2022-10-17T02:21:36;100447.89;;;8.77;73.75
50710;BME280;37033;49.994;21.992;2022-10-17T02:24:28;100451.75;;;8.75;74.07
50710;BME280;37033;49.994;21.992;2022-10-17T02:27:22;100454.09;;;8.73;74.27
50710;BME280;37033;49.994;21.992;2022-10-17T02:30:13;100459.96;;;8.70;74.32
50710;BME280;37033;49.994;21.992;2022-10-17T02:33:03;100456.41;;;8.70;74.28
50710;BME280;37033;49.994;21.992;2022-10-17T02:35:54;100458.77;;;8.66;73.97
50710;BME280;37033;49.994;21.992;2022-10-17T02:38:45;100464.67;;;8.62;74.33
50710;BME280;37033;49.994;21.992;2022-10-17T02:41:34;100466.83;;;8.58;74.34
50710;BME280;37033;49.994;21.992;2022-10-17T02:44:23;100473.61;;;8.55;74.70
50710;BME280;37033;49.994;21.992;2022-10-17T02:47:15;100477.17;;;8.52;74.69
50710;BME280;37033;49.994;21.992;2022-10-17T02:50:05;100480.65;;;8.50;74.79
50710;BME280;37033;49.994;21.992;2022-10-17T02:52:55;100484.27;;;8.49;74.86
50710;BME280;37033;49.994;21.992;2022-10-17T02:55:47;100479.66;;;8.48;74.95
50710;BME280;37033;49.994;21.992;2022-10-17T02:58:37;100476.11;;;8.47;75.04
50710;BME280;37033;49.994;21.992;2022-10-17T03:01:27;100476.31;;;8.47;75.06
50710;BME280;37033;49.994;21.992;2022-10-17T03:04:16;100471.65;;;8.46;75.19
50710;BME280;37033;49.994;21.992;2022-10-17T03:07:05;100470.35;;;8.45;75.31
50710;BME280;37033;49.994;21.992;2022-10-17T03:09:54;100476.67;;;8.43;75.31
50710;BME280;37033;49.994;21.992;2022-10-17T03:12:42;100479.46;;;8.43;75.31
50710;BME280;37033;49.994;21.992;2022-10-17T03:15:31;100480.84;;;8.43;75.46
50710;BME280;37033;49.994;21.992;2022-10-17T03:18:20;100478.51;;;8.43;75.37
50710;BME280;37033;49.994;21.992;2022-10-17T03:21:08;100477.48;;;8.41;75.47
50710;BME280;37033;49.994;21.992;2022-10-17T03:23:56;100477.85;;;8.40;75.48
50710;BME280;37033;49.994;21.992;2022-10-17T03:26:45;100479.20;;;8.38;75.62
50710;BME280;37033;49.994;21.992;2022-10-17T03:29:33;100483.86;;;8.35;75.63
50710;BME280;37033;49.994;21.992;2022-10-17T03:32:22;100484.72;;;8.33;75.38
50710;BME280;37033;49.994;21.992;2022-10-17T03:35:10;100482.48;;;8.29;75.32
50710;BME280;37033;49.994;21.992;2022-10-17T03:37:59;100485.84;;;8.27;75.63
50710;BME280;37033;49.994;21.992;2022-10-17T03:40:54;100488.58;;;8.24;75.55
50710;BME280;37033;49.994;21.992;2022-10-17T03:43:43;100491.79;;;8.21;75.74
50710;BME280;37033;49.994;21.992;2022-10-17T03:46:31;100495.71;;;8.19;75.94
50710;BME280;37033;49.994;21.992;2022-10-17T03:49:20;100498.91;;;8.17;75.81
50710;BME280;37033;49.994;21.992;2022-10-17T03:52:11;100499.16;;;8.15;75.57
50710;BME280;37033;49.994;21.992;2022-10-17T03:55:00;100503.61;;;8.13;75.82
50710;BME280;37033;49.994;21.992;2022-10-17T03:57:48;100506.95;;;8.10;76.04
50710;BME280;37033;49.994;21.992;2022-10-17T04:00:37;100508.81;;;8.07;75.98
50710;BME280;37033;49.994;21.992;2022-10-17T04:03:25;100504.61;;;8.04;76.13
50710;BME280;37033;49.994;21.992;2022-10-17T04:06:14;100506.02;;;8.02;76.31
50710;BME280;37033;49.994;21.992;2022-10-17T04:09:02;100507.88;;;8.00;76.36
50710;BME280;37033;49.994;21.992;2022-10-17T04:11:51;100509.77;;;7.98;76.29
50710;BME280;37033;49.994;21.992;2022-10-17T04:14:40;100509.39;;;7.95;76.44
50710;BME280;37033;49.994;21.992;2022-10-17T04:17:30;100507.04;;;7.93;76.48
50710;BME280;37033;49.994;21.992;2022-10-17T04:20:18;100513.19;;;7.90;76.42
50710;BME280;37033;49.994;21.992;2022-10-17T04:23:07;100515.98;;;7.88;76.41
50710;BME280;37033;49.994;21.992;2022-10-17T04:25:56;100516.77;;;7.86;76.52
50710;BME280;37033;49.994;21.992;2022-10-17T04:28:44;100519.17;;;7.84;76.57
50710;BME280;37033;49.994;21.992;2022-10-17T04:31:32;100523.48;;;7.81;76.75
50710;BME280;37033;49.994;21.992;2022-10-17T04:34:21;100522.77;;;7.80;76.83
50710;BME280;37033;49.994;21.992;2022-10-17T04:37:10;100525.54;;;7.78;76.72
50710;BME280;37033;49.994;21.992;2022-10-17T04:39:58;100529.31;;;7.77;76.60
50710;BME280;37033;49.994;21.992;2022-10-17T04:42:47;100530.51;;;7.75;76.73
50710;BME280;37033;49.994;21.992;2022-10-17T04:45:35;100532.73;;;7.72;76.80
50710;BME280;37033;49.994;21.992;2022-10-17T04:48:24;100528.55;;;7.69;76.69
50710;BME280;37033;49.994;21.992;2022-10-17T04:51:13;100527.88;;;7.69;76.65
50710;BME280;37033;49.994;21.992;2022-10-17T04:54:02;100524.50;;;7.69;76.58
50710;BME280;37033;49.994;21.992;2022-10-17T04:56:50;100527.67;;;7.69;76.64
50710;BME280;37033;49.994;21.992;2022-10-17T04:59:39;100531.10;;;7.70;76.90
50710;BME280;37033;49.994;21.992;2022-10-17T05:02:27;100536.54;;;7.74;76.91
50710;BME280;37033;49.994;21.992;2022-10-17T05:05:16;100537.17;;;7.76;77.21
50710;BME280;37033;49.994;21.992;2022-10-17T05:08:04;100539.44;;;7.78;77.62
50710;BME280;37033;49.994;21.992;2022-10-17T05:10:53;100544.14;;;7.82;77.57
50710;BME280;37033;49.994;21.992;2022-10-17T05:13:41;100555.48;;;7.85;77.81
50710;BME280;37033;49.994;21.992;2022-10-17T05:16:30;100555.58;;;7.87;77.69
50710;BME280;37033;49.994;21.992;2022-10-17T05:19:18;100561.30;;;7.87;77.83
50710;BME280;37033;49.994;21.992;2022-10-17T05:22:07;100567.45;;;7.89;78.12
50710;BME280;37033;49.994;21.992;2022-10-17T05:24:55;100568.89;;;7.92;78.19
50710;BME280;37033;49.994;21.992;2022-10-17T05:27:44;100572.54;;;7.94;78.43
50710;BME280;37033;49.994;21.992;2022-10-17T05:30:33;100578.55;;;7.97;78.26
50710;BME280;37033;49.994;21.992;2022-10-17T05:33:22;100583.31;;;7.99;78.09
50710;BME280;37033;49.994;21.992;2022-10-17T05:36:11;100587.73;;;8.02;78.56
50710;BME280;37033;49.994;21.992;2022-10-17T05:38:59;100591.55;;;8.06;78.77
50710;BME280;37033;49.994;21.992;2022-10-17T05:41:47;100591.77;;;8.12;78.71
50710;BME280;37033;49.994;21.992;2022-10-17T05:44:37;100592.64;;;8.18;78.62
50710;BME280;37033;49.994;21.992;2022-10-17T05:47:26;100595.52;;;8.25;78.43
50710;BME280;37033;49.994;21.992;2022-10-17T05:50:15;100598.98;;;8.33;79.04
50710;BME280;37033;49.994;21.992;2022-10-17T05:53:06;100601.45;;;8.44;78.98
50710;BME280;37033;49.994;21.992;2022-10-17T05:55:56;100599.21;;;8.53;79.08
50710;BME280;37033;49.994;21.992;2022-10-17T05:58:44;100598.95;;;8.63;79.20
50710;BME280;37033;49.994;21.992;2022-10-17T06:01:33;100601.64;;;8.75;78.97
50710;BME280;37033;49.994;21.992;2022-10-17T06:04:21;100606.27;;;8.87;79.04
50710;BME280;37033;49.994;21.992;2022-10-17T06:07:10;100607.35;;;9.06;78.64
50710;BME280;37033;49.994;21.992;2022-10-17T06:09:58;100609.78;;;9.24;78.66
50710;BME280;37033;49.994;21.992;2022-10-17T06:12:47;100608.01;;;9.42;78.78
50710;BME280;37033;49.994;21.992;2022-10-17T06:15:36;100614.95;;;9.64;78.05
50710;BME280;37033;49.994;21.992;2022-10-17T06:18:24;100620.30;;;9.84;78.58
50710;BME280;37033;49.994;21.992;2022-10-17T06:21:14;100623.82;;;9.97;78.77
50710;BME280;37033;49.994;21.992;2022-10-17T06:24:02;100627.52;;;10.11;78.28
50710;BME280;37033;49.994;21.992;2022-10-17T06:26:51;100632.94;;;10.28;77.99
50710;BME280;37033;49.994;21.992;2022-10-17T06:29:39;100635.45;;;10.44;77.67
50710;BME280;37033;49.994;21.992;2022-10-17T06:32:28;100639.50;;;10.58;77.76
50710;BME280;37033;49.994;21.992;2022-10-17T06:35:17;100640.48;;;10.72;77.71
50710;BME280;37033;49.994;21.992;2022-10-17T06:38:06;100640.52;;;10.83;77.78
50710;BME280;37033;49.994;21.992;2022-10-17T06:40:54;100640.40;;;10.96;77.59
50710;BME280;37033;49.994;21.992;2022-10-17T06:43:49;100640.92;;;11.16;77.61
50710;BME280;37033;49.994;21.992;2022-10-17T06:46:38;100641.52;;;11.36;77.68
50710;BME280;37033;49.994;21.992;2022-10-17T06:49:26;100638.16;;;11.55;77.18
50710;BME280;37033;49.994;21.992;2022-10-17T06:52:15;100631.06;;;11.75;76.99
50710;BME280;37033;49.994;21.992;2022-10-17T06:55:04;100630.36;;;11.91;76.59
50710;BME280;37033;49.994;21.992;2022-10-17T06:57:54;100632.36;;;12.05;76.35
50710;BME280;37033;49.994;21.992;2022-10-17T07:00:42;100629.45;;;12.19;76.55
50710;BME280;37033;49.994;21.992;2022-10-17T07:03:31;100631.02;;;12.32;76.23
50710;BME280;37033;49.994;21.992;2022-10-17T07:06:19;100638.91;;;12.41;75.94
50710;BME280;37033;49.994;21.992;2022-10-17T07:09:10;100642.27;;;12.52;75.78
50710;BME280;37033;49.994;21.992;2022-10-17T07:11:58;100651.50;;;12.65;75.66
50710;BME280;37033;49.994;21.992;2022-10-17T07:14:47;100652.27;;;12.77;75.42
50710;BME280;37033;49.994;21.992;2022-10-17T07:17:36;100654.23;;;12.91;74.83
50710;BME280;37033;49.994;21.992;2022-10-17T07:20:24;100653.50;;;13.05;74.41
50710;BME280;37033;49.994;21.992;2022-10-17T07:23:13;100655.70;;;13.18;74.08
50710;BME280;37033;49.994;21.992;2022-10-17T07:26:02;100655.30;;;13.30;73.56
50710;BME280;37033;49.994;21.992;2022-10-17T07:28:53;100652.75;;;13.39;73.28
50710;BME280;37033;49.994;21.992;2022-10-17T07:31:42;100655.95;;;13.49;73.16
50710;BME280;37033;49.994;21.992;2022-10-17T07:34:34;100653.93;;;13.58;72.92
50710;BME280;37033;49.994;21.992;2022-10-17T07:37:23;100660.66;;;13.71;72.83
50710;BME280;37033;49.994;21.992;2022-10-17T07:40:11;100659.58;;;13.80;72.53
50710;BME280;37033;49.994;21.992;2022-10-17T07:43:00;100662.55;;;13.89;72.42
50710;BME280;37033;49.994;21.992;2022-10-17T07:45:49;100660.69;;;14.02;72.32
50710;BME280;37033;49.994;21.992;2022-10-17T07:48:37;100663.73;;;14.12;72.17
50710;BME280;37033;49.994;21.992;2022-10-17T07:51:26;100663.33;;;14.19;72.03
50710;BME280;37033;49.994;21.992;2022-10-17T07:54:14;100669.82;;;14.27;71.58
50710;BME280;37033;49.994;21.992;2022-10-17T07:57:03;100675.47;;;14.34;71.48
50710;BME280;37033;49.994;21.992;2022-10-17T07:59:52;100676.39;;;14.43;70.72
50710;BME280;37033;49.994;21.992;2022-10-17T08:02:40;100676.91;;;14.50;70.77
50710;BME280;37033;49.994;21.992;2022-10-17T08:05:29;100678.92;;;14.57;70.98
50710;BME280;37033;49.994;21.992;2022-10-17T08:08:17;100677.73;;;14.62;70.87
50710;BME280;37033;49.994;21.992;2022-10-17T08:11:06;100671.52;;;14.68;71.04
50710;BME280;37033;49.994;21.992;2022-10-17T08:13:55;100668.52;;;14.74;70.69
50710;BME280;37033;49.994;21.992;2022-10-17T08:16:43;100670.72;;;14.81;70.37
50710;BME280;37033;49.994;21.992;2022-10-17T08:19:32;100667.52;;;14.90;69.82
50710;BME280;37033;49.994;21.992;2022-10-17T08:22:20;100669.28;;;14.97;69.29
50710;BME280;37033;49.994;21.992;2022-10-17T08:25:09;100670.16;;;15.02;69.30
50710;BME280;37033;49.994;21.992;2022-10-17T08:27:58;100669.83;;;15.07;69.21
50710;BME280;37033;49.994;21.992;2022-10-17T08:30:47;100671.20;;;15.14;68.72
50710;BME280;37033;49.994;21.992;2022-10-17T08:33:36;100672.11;;;15.21;68.74
50710;BME280;37033;49.994;21.992;2022-10-17T08:36:24;100674.98;;;15.30;68.47
50710;BME280;37033;49.994;21.992;2022-10-17T08:39:14;100669.60;;;15.39;68.29
50710;BME280;37033;49.994;21.992;2022-10-17T08:42:11;100666.36;;;15.47;67.65
50710;BME280;37033;49.994;21.992;2022-10-17T08:45:06;100665.61;;;15.55;67.48
50710;BME280;37033;49.994;21.992;2022-10-17T08:48:01;100673.34;;;15.65;67.67
50710;BME280;37033;49.994;21.992;2022-10-17T08:50:52;100677.54;;;15.74;67.65
50710;BME280;37033;49.994;21.992;2022-10-17T08:53:42;100677.70;;;15.81;67.49
50710;BME280;37033;49.994;21.992;2022-10-17T08:56:34;100676.90;;;15.91;67.69
50710;BME280;37033;49.994;21.992;2022-10-17T08:59:26;100676.59;;;16.01;66.95
50710;BME280;37033;49.994;21.992;2022-10-17T09:02:19;100677.06;;;16.11;66.96
50710;BME280;37033;49.994;21.992;2022-10-17T09:05:22;100675.18;;;16.23;66.07
50710;BME280;37033;49.994;21.992;2022-10-17T09:08:15;100677.73;;;16.34;66.15
50710;BME280;37033;49.994;21.992;2022-10-17T09:11:11;100674.45;;;16.41;66.08
50710;BME280;37033;49.994;21.992;2022-10-17T09:14:06;100670.33;;;16.47;65.91
50710;BME280;37033;49.994;21.992;2022-10-17T09:17:01;100670.58;;;16.53;65.84
50710;BME280;37033;49.994;21.992;2022-10-17T09:19:56;100664.22;;;16.60;66.05
50710;BME280;37033;49.994;21.992;2022-10-17T09:22:46;100660.10;;;16.68;65.31
50710;BME280;37033;49.994;21.992;2022-10-17T09:25:40;100664.00;;;16.71;65.36
50710;BME280;37033;49.994;21.992;2022-10-17T09:28:30;100665.58;;;16.76;65.52
50710;BME280;37033;49.994;21.992;2022-10-17T09:31:20;100669.52;;;16.82;64.98
50710;BME280;37033;49.994;21.992;2022-10-17T09:34:09;100663.85;;;16.87;64.77
50710;BME280;37033;49.994;21.992;2022-10-17T09:36:58;100667.30;;;16.95;65.60
50710;BME280;37033;49.994;21.992;2022-10-17T09:39:48;100669.63;;;17.03;65.01
50710;BME280;37033;49.994;21.992;2022-10-17T09:42:37;100672.68;;;17.14;63.90
50710;BME280;37033;49.994;21.992;2022-10-17T09:45:26;100669.18;;;17.24;64.19
50710;BME280;37033;49.994;21.992;2022-10-17T09:48:18;100667.63;;;17.36;64.20
50710;BME280;37033;49.994;21.992;2022-10-17T09:51:09;100668.37;;;17.45;63.11
50710;BME280;37033;49.994;21.992;2022-10-17T09:53:58;100665.48;;;17.52;62.69
50710;BME280;37033;49.994;21.992;2022-10-17T09:56:57;100665.14;;;17.56;62.81
50710;BME280;37033;49.994;21.992;2022-10-17T09:59:54;100665.64;;;17.61;63.26
50710;BME280;37033;49.994;21.992;2022-10-17T10:02:43;100662.94;;;17.69;63.23
50710;BME280;37033;49.994;21.992;2022-10-17T10:05:32;100658.77;;;17.77;63.15
50710;BME280;37033;49.994;21.992;2022-10-17T10:08:20;100663.41;;;17.83;63.32
50710;BME280;37033;49.994;21.992;2022-10-17T10:11:10;100667.65;;;17.91;63.09
50710;BME280;37033;49.994;21.992;2022-10-17T10:13:59;100667.92;;;18.01;62.89
50710;BME280;37033;49.994;21.992;2022-10-17T10:16:58;100669.05;;;18.08;62.46
50710;BME280;37033;49.994;21.992;2022-10-17T10:19:50;100665.36;;;18.15;62.09
50710;BME280;37033;49.994;21.992;2022-10-17T10:22:38;100663.27;;;18.21;61.74
50710;BME280;37033;49.994;21.992;2022-10-17T10:25:27;100660.35;;;18.27;62.23
50710;BME280;37033;49.994;21.992;2022-10-17T10:28:16;100654.54;;;18.34;61.79
50710;BME280;37033;49.994;21.992;2022-10-17T10:31:06;100650.30;;;18.41;61.66
50710;BME280;37033;49.994;21.992;2022-10-17T10:33:55;100646.92;;;18.47;61.52
50710;BME280;37033;49.994;21.992;2022-10-17T10:36:49;100642.23;;;18.53;60.78
50710;BME280;37033;49.994;21.992;2022-10-17T10:39:41;100646.41;;;18.59;60.73
50710;BME280;37033;49.994;21.992;2022-10-17T10:42:31;100646.85;;;18.66;60.77
50710;BME280;37033;49.994;21.992;2022-10-17T10:45:21;100645.85;;;18.74;60.83
50710;BME280;37033;49.994;21.992;2022-10-17T10:48:16;100638.66;;;18.81;60.37
50710;BME280;37033;49.994;21.992;2022-10-17T10:51:07;100641.68;;;18.88;60.52
50710;BME280;37033;49.994;21.992;2022-10-17T10:54:01;100643.05;;;18.96;60.31
50710;BME280;37033;49.994;21.992;2022-10-17T10:56:51;100642.09;;;19.01;59.68
50710;BME280;37033;49.994;21.992;2022-10-17T10:59:42;100641.95;;;19.07;59.60
50710;BME280;37033;49.994;21.992;2022-10-17T11:02:36;100637.73;;;19.13;59.76
50710;BME280;37033;49.994;21.992;2022-10-17T11:05:30;100635.86;;;19.24;59.80
50710;BME280;37033;49.994;21.992;2022-10-17T11:08:25;100637.39;;;19.33;59.44
50710;BME280;37033;49.994;21.992;2022-10-17T11:11:16;100634.55;;;19.41;59.17
50710;BME280;37033;49.994;21.992;2022-10-17T11:14:10;100630.22;;;19.48;58.99
50710;BME280;37033;49.994;21.992;2022-10-17T11:17:04;100630.08;;;19.56;58.72
50710;BME280;37033;49.994;21.992;2022-10-17T11:19:57;100630.27;;;19.62;58.35
50710;BME280;37033;49.994;21.992;2022-10-17T11:22:48;100628.20;;;19.68;58.58
50710;BME280;37033;49.994;21.992;2022-10-17T11:25:39;100621.56;;;19.76;58.61
50710;BME280;37033;49.994;21.992;2022-10-17T11:28:29;100616.12;;;19.85;58.02
50710;BME280;37033;49.994;21.992;2022-10-17T11:31:18;100616.52;;;19.94;57.43
50710;BME280;37033;49.994;21.992;2022-10-17T11:34:08;100612.71;;;20.00;57.86
50710;BME280;37033;49.994;21.992;2022-10-17T11:36:58;100607.64;;;20.05;57.11
50710;BME280;37033;49.994;21.992;2022-10-17T11:39:52;100604.98;;;20.08;57.11
50710;BME280;37033;49.994;21.992;2022-10-17T11:42:42;100605.66;;;20.14;57.05
50710;BME280;37033;49.994;21.992;2022-10-17T11:45:38;100597.26;;;20.18;56.94
50710;BME280;37033;49.994;21.992;2022-10-17T11:48:29;100603.62;;;20.22;56.44
50710;BME280;37033;49.994;21.992;2022-10-17T11:51:19;100601.63;;;20.26;56.07
50710;BME280;37033;49.994;21.992;2022-10-17T11:54:08;100601.52;;;20.31;56.48
50710;BME280;37033;49.994;21.992;2022-10-17T11:57:05;100600.02;;;20.36;56.05
50710;BME280;37033;49.994;21.992;2022-10-17T11:59:59;100600.91;;;20.40;56.04
50710;BME280;37033;49.994;21.992;2022-10-17T12:02:51;100597.86;;;20.46;56.30
50710;BME280;37033;49.994;21.992;2022-10-17T12:05:46;100598.40;;;20.51;56.25
50710;BME280;37033;49.994;21.992;2022-10-17T12:08:39;100602.89;;;20.59;55.49
50710;BME280;37033;49.994;21.992;2022-10-17T12:11:32;100603.23;;;20.65;55.49
50710;BME280;37033;49.994;21.992;2022-10-17T12:17:31;100600.02;;;20.73;55.91
50710;BME280;37033;49.994;21.992;2022-10-17T12:20:26;100598.83;;;20.78;55.85
50710;BME280;37033;49.994;21.992;2022-10-17T12:23:20;100596.73;;;20.83;55.65
50710;BME280;37033;49.994;21.992;2022-10-17T12:26:11;100596.60;;;20.86;55.43
50710;BME280;37033;49.994;21.992;2022-10-17T12:29:18;100593.33;;;20.90;54.57
50710;BME280;37033;49.994;21.992;2022-10-17T12:32:12;100594.54;;;20.92;53.66
50710;BME280;37033;49.994;21.992;2022-10-17T12:35:03;100592.70;;;20.94;54.05
50710;BME280;37033;49.994;21.992;2022-10-17T12:38:00;100589.83;;;20.97;52.93
50710;BME280;37033;49.994;21.992;2022-10-17T12:40:52;100592.57;;;20.99;53.14
50710;BME280;37033;49.994;21.992;2022-10-17T12:49:42;100590.45;;;21.06;53.64
50710;BME280;37033;49.994;21.992;2022-10-17T12:52:54;100590.89;;;21.06;52.97
50710;BME280;37033;49.994;21.992;2022-10-17T12:55:45;100592.23;;;21.05;52.11
50710;BME280;37033;49.994;21.992;2022-10-17T12:58:37;100589.59;;;21.04;52.35
50710;BME280;37033;49.994;21.992;2022-10-17T13:01:30;100587.98;;;21.04;51.80
50710;BME280;37033;49.994;21.992;2022-10-17T13:04:20;100583.79;;;21.02;51.99
50710;BME280;37033;49.994;21.992;2022-10-17T13:07:12;100581.68;;;21.01;51.74
50710;BME280;37033;49.994;21.992;2022-10-17T13:10:05;100583.12;;;21.02;52.35
50710;BME280;37033;49.994;21.992;2022-10-17T13:12:53;100584.72;;;21.03;52.73
50710;BME280;37033;49.994;21.992;2022-10-17T13:15:47;100582.46;;;21.04;52.12
50710;BME280;37033;49.994;21.992;2022-10-17T13:18:36;100580.13;;;21.02;51.82
50710;BME280;37033;49.994;21.992;2022-10-17T13:21:25;100578.14;;;20.99;51.97
50710;BME280;37033;49.994;21.992;2022-10-17T13:24:21;100579.92;;;20.97;51.73
50710;BME280;37033;49.994;21.992;2022-10-17T13:27:22;100573.73;;;20.94;51.63
50710;BME280;37033;49.994;21.992;2022-10-17T13:30:26;100574.92;;;20.91;51.45
50710;BME280;37033;49.994;21.992;2022-10-17T13:33:23;100572.82;;;20.89;52.06
50710;BME280;37033;49.994;21.992;2022-10-17T13:36:16;100571.98;;;20.89;52.15
50710;BME280;37033;49.994;21.992;2022-10-17T13:39:06;100569.17;;;20.89;52.29
50710;BME280;37033;49.994;21.992;2022-10-17T13:41:56;100567.57;;;20.89;52.38
50710;BME280;37033;49.994;21.992;2022-10-17T13:44:44;100568.08;;;20.88;52.53
50710;BME280;37033;49.994;21.992;2022-10-17T13:47:35;100567.80;;;20.87;52.33
50710;BME280;37033;49.994;21.992;2022-10-17T13:50:26;100564.39;;;20.83;52.13
50710;BME280;37033;49.994;21.992;2022-10-17T13:53:19;100562.41;;;20.81;52.89
50710;BME280;37033;49.994;21.992;2022-10-17T13:56:16;100564.89;;;20.82;53.21
50710;BME280;37033;49.994;21.992;2022-10-17T13:59:12;100559.91;;;20.82;53.05
50710;BME280;37033;49.994;21.992;2022-10-17T14:02:08;100555.05;;;20.79;52.77
50710;BME280;37033;49.994;21.992;2022-10-17T14:05:01;100553.98;;;20.76;53.02
50710;BME280;37033;49.994;21.992;2022-10-17T14:07:52;100550.38;;;20.72;52.68
50710;BME280;37033;49.994;21.992;2022-10-17T14:10:41;100553.39;;;20.67;52.55
50710;BME280;37033;49.994;21.992;2022-10-17T14:13:30;100547.95;;;20.58;52.18
50710;BME280;37033;49.994;21.992;2022-10-17T14:16:22;100547.53;;;20.50;52.24
50710;BME280;37033;49.994;21.992;2022-10-17T14:19:15;100548.65;;;20.44;52.07
50710;BME280;37033;49.994;21.992;2022-10-17T14:22:16;100548.83;;;20.38;52.73
50710;BME280;37033;49.994;21.992;2022-10-17T14:28:12;100565.02;;;20.25;52.88
50710;BME280;37033;49.994;21.992;2022-10-17T14:34:19;100568.23;;;20.12;53.28
50710;BME280;37033;49.994;21.992;2022-10-17T14:37:09;100565.58;;;20.05;53.09
50710;BME280;37033;49.994;21.992;2022-10-17T14:39:59;100567.95;;;19.99;53.50
50710;BME280;37033;49.994;21.992;2022-10-17T14:42:48;100567.17;;;19.94;53.79
50710;BME280;37033;49.994;21.992;2022-10-17T14:45:37;100568.94;;;19.87;53.71
50710;BME280;37033;49.994;21.992;2022-10-17T14:48:27;100572.86;;;19.81;54.06
50710;BME280;37033;49.994;21.992;2022-10-17T14:51:18;100574.60;;;19.76;54.21
50710;BME280;37033;49.994;21.992;2022-10-17T14:54:19;100568.51;;;19.70;54.26
50710;BME280;37033;49.994;21.992;2022-10-17T14:57:13;100566.55;;;19.62;54.31
50710;BME280;37033;49.994;21.992;2022-10-17T15:00:02;100567.75;;;19.53;54.46
50710;BME280;37033;49.994;21.992;2022-10-17T15:02:51;100562.48;;;19.48;54.71